createdAt,value
2022-12-01T00:01:07.723Z,-2.40
2022-12-01T00:03:35.134Z,-2.67
2022-12-01T00:06:04.691Z,-2.84
2022-12-01T00:08:32.455Z,-3.06
2022-12-01T00:11:06.978Z,-3.04
2022-12-01T00:13:34.438Z,-2.38
2022-12-01T00:16:11.975Z,-2.08
2022-12-01T00:18:39.278Z,-2.16
2022-12-01T00:21:14.284Z,-2.34
2022-12-01T00:23:49.328Z,-2.57
2022-12-01T00:26:17.008Z,-2.87
2022-12-01T00:28:44.194Z,-3.14
2022-12-01T00:31:12.228Z,-3.31
2022-12-01T00:33:39.638Z,-3.45
2022-12-01T00:36:08.272Z,-3.23
2022-12-01T00:38:35.530Z,-2.42
2022-12-01T00:41:03.180Z,-1.88
2022-12-01T00:43:30.639Z,-1.86
2022-12-01T00:45:58.200Z,-1.98
2022-12-01T00:48:25.654Z,-2.15
2022-12-01T00:50:53.321Z,-2.39
2022-12-01T00:53:20.874Z,-2.63
2022-12-01T00:55:48.228Z,-2.81
2022-12-01T00:58:15.479Z,-3.19
2022-12-01T01:00:42.570Z,-3.68
2022-12-01T01:03:10.288Z,-2.86
2022-12-01T01:05:38.356Z,-2.09
2022-12-01T01:08:07.314Z,-1.89
2022-12-01T01:10:39.112Z,-2.05
2022-12-01T01:13:06.196Z,-2.30
2022-12-01T01:15:34.233Z,-2.53
2022-12-01T01:18:01.788Z,-2.74
2022-12-01T01:20:29.346Z,-2.88
2022-12-01T01:22:56.914Z,-3.07
2022-12-01T01:25:24.301Z,-3.09
2022-12-01T01:27:51.512Z,-2.48
2022-12-01T01:30:21.128Z,-2.09
2022-12-01T01:32:48.601Z,-2.14
2022-12-01T01:35:16.131Z,-2.34
2022-12-01T01:37:44.356Z,-2.54
2022-12-01T01:40:12.164Z,-2.72
2022-12-01T01:42:39.430Z,-2.88
2022-12-01T01:45:19.069Z,-3.03
2022-12-01T01:47:46.831Z,-3.18
2022-12-01T01:50:15.417Z,-3.31
2022-12-01T01:52:48.279Z,-3.39
2022-12-01T01:55:15.412Z,-3.29
2022-12-01T01:57:42.798Z,-2.41
2022-12-01T02:00:13.191Z,-1.66
2022-12-01T02:02:44.932Z,-1.55
2022-12-01T02:05:15.003Z,-1.66
2022-12-01T02:07:42.011Z,-1.85
2022-12-01T02:10:10.749Z,-2.06
2022-12-01T02:12:59.745Z,-2.23
2022-12-01T02:15:50.294Z,-2.45
2022-12-01T02:18:30.148Z,-2.65
2022-12-01T02:21:12.856Z,-2.80
2022-12-01T02:24:11.440Z,-2.99
2022-12-01T02:26:44.548Z,-3.09
2022-12-01T02:29:46.520Z,-3.18
2022-12-01T02:32:33.307Z,-2.73
2022-12-01T02:35:00.768Z,-1.78
2022-12-01T02:37:33.013Z,-1.51
2022-12-01T02:40:19.637Z,-1.64
2022-12-01T02:42:49.354Z,-2.00
2022-12-01T02:45:23.838Z,-2.40
2022-12-01T02:47:52.035Z,-2.72
2022-12-01T02:50:20.254Z,-2.81
2022-12-01T02:52:47.673Z,-3.09
2022-12-01T02:55:14.722Z,-3.33
2022-12-01T02:57:41.970Z,-3.56
2022-12-01T03:00:13.217Z,-3.34
2022-12-01T03:02:51.209Z,-2.59
2022-12-01T03:12:47.831Z,-3.23
2022-12-01T03:15:30.554Z,-3.33
2022-12-01T03:18:07.418Z,-3.60
2022-12-01T03:21:01.259Z,-3.67
2022-12-01T03:23:30.592Z,-2.70
2022-12-01T03:25:58.335Z,-2.56
2022-12-01T03:28:29.166Z,-2.87
2022-12-01T03:30:59.523Z,-3.13
2022-12-01T03:33:33.371Z,-2.94
2022-12-01T03:36:08.026Z,-3.27
2022-12-01T03:38:36.404Z,-3.40
2022-12-01T03:41:08.285Z,-3.37
2022-12-01T03:43:37.063Z,-3.47
2022-12-01T03:46:23.682Z,-3.41
2022-12-01T03:48:53.168Z,-2.97
2022-12-01T03:51:56.765Z,-2.45
2022-12-01T03:54:29.783Z,-3.23
2022-12-01T03:56:59.767Z,-3.05
2022-12-01T03:59:27.028Z,-3.06
2022-12-01T04:01:54.471Z,-3.10
2022-12-01T04:04:22.251Z,-3.37
2022-12-01T04:06:50.621Z,-3.63
2022-12-01T04:09:17.907Z,-3.11
2022-12-01T04:12:03.977Z,-2.85
2022-12-01T04:14:31.046Z,-2.90
2022-12-01T04:16:58.195Z,-2.92
2022-12-01T04:19:25.310Z,-2.99
2022-12-01T04:21:52.572Z,-3.31
2022-12-01T04:24:19.723Z,-3.54
2022-12-01T04:26:46.861Z,-3.71
2022-12-01T04:29:14.144Z,-3.02
2022-12-01T04:31:41.431Z,-2.39
2022-12-01T04:34:10.153Z,-2.46
2022-12-01T04:36:37.310Z,-2.70
2022-12-01T04:39:04.756Z,-2.96
2022-12-01T04:41:32.220Z,-3.01
2022-12-01T04:43:59.481Z,-3.34
2022-12-01T04:46:26.898Z,-3.42
2022-12-01T04:48:54.284Z,-3.65
2022-12-01T04:51:22.583Z,-3.24
2022-12-01T04:53:50.554Z,-2.51
2022-12-01T04:56:17.874Z,-2.18
2022-12-01T04:58:45.077Z,-2.22
2022-12-01T05:01:13.195Z,-2.39
2022-12-01T05:03:42.111Z,-2.96
2022-12-01T05:06:17.410Z,-3.15
2022-12-01T05:08:44.616Z,-3.56
2022-12-01T05:11:12.762Z,-3.66
2022-12-01T05:13:40.455Z,-3.08
2022-12-01T05:16:09.038Z,-2.50
2022-12-01T05:18:36.644Z,-2.59
2022-12-01T05:21:04.548Z,-2.70
2022-12-01T05:23:33.313Z,-2.89
2022-12-01T05:26:00.768Z,-3.26
2022-12-01T05:28:28.336Z,-3.43
2022-12-01T05:30:55.683Z,-3.56
2022-12-01T05:33:23.577Z,-3.43
2022-12-01T05:35:50.908Z,-3.19
2022-12-01T05:38:18.566Z,-3.31
2022-12-01T05:40:53.208Z,-3.36
2022-12-01T05:43:26.871Z,-3.53
2022-12-01T05:45:56.601Z,-3.52
2022-12-01T05:48:24.159Z,-3.69
2022-12-01T05:50:51.373Z,-3.00
2022-12-01T05:53:19.282Z,-2.43
2022-12-01T05:55:47.161Z,-2.75
2022-12-01T05:58:14.293Z,-2.85
2022-12-01T06:00:45.766Z,-3.05
2022-12-01T06:03:14.250Z,-3.39
2022-12-01T06:05:41.474Z,-3.38
2022-12-01T06:08:08.834Z,-3.57
2022-12-01T06:10:36.080Z,-3.32
2022-12-01T06:13:03.390Z,-2.50
2022-12-01T06:15:30.508Z,-2.15
2022-12-01T06:18:00.908Z,-2.16
2022-12-01T06:20:28.366Z,-2.44
2022-12-01T06:22:55.617Z,-2.67
2022-12-01T06:25:22.869Z,-3.00
2022-12-01T06:27:50.138Z,-3.23
2022-12-01T06:30:17.678Z,-3.38
2022-12-01T06:32:44.932Z,-3.14
2022-12-01T06:35:12.632Z,-2.68
2022-12-01T06:37:39.852Z,-2.44
2022-12-01T06:40:07.927Z,-2.43
2022-12-01T06:42:35.164Z,-2.89
2022-12-01T06:45:02.425Z,-2.94
2022-12-01T06:47:29.568Z,-3.31
2022-12-01T06:49:56.818Z,-3.42
2022-12-01T06:52:24.002Z,-3.64
2022-12-01T06:54:51.326Z,-3.11
2022-12-01T06:57:18.911Z,-2.55
2022-12-01T06:59:46.573Z,-2.27
2022-12-01T07:02:14.330Z,-2.69
2022-12-01T07:04:41.586Z,-2.97
2022-12-01T07:07:08.692Z,-3.18
2022-12-01T07:09:35.808Z,-3.36
2022-12-01T07:12:03.010Z,-3.42
2022-12-01T07:14:31.839Z,-3.31
2022-12-01T07:16:59.296Z,-2.68
2022-12-01T07:19:26.610Z,-2.21
2022-12-01T07:21:53.882Z,-2.39
2022-12-01T07:24:21.108Z,-2.60
2022-12-01T07:26:48.576Z,-2.84
2022-12-01T07:29:15.638Z,-2.75
2022-12-01T07:31:42.746Z,-2.92
2022-12-01T07:34:13.549Z,-3.07
2022-12-01T07:36:40.747Z,-3.03
2022-12-01T07:39:08.412Z,-3.08
2022-12-01T07:41:35.719Z,-2.69
2022-12-01T07:44:03.647Z,-2.46
2022-12-01T07:46:30.788Z,-2.32
2022-12-01T07:48:58.062Z,-2.33
2022-12-01T07:51:25.794Z,-2.73
2022-12-01T07:53:53.874Z,-2.91
2022-12-01T07:56:21.209Z,-2.91
2022-12-01T07:58:48.477Z,-2.75
2022-12-01T08:01:17.761Z,-2.91
2022-12-01T08:03:45.228Z,-2.16
2022-12-01T08:06:13.385Z,-1.96
2022-12-01T08:08:41.309Z,-1.77
2022-12-01T08:11:11.908Z,-1.83
2022-12-01T08:13:39.879Z,-1.95
2022-12-01T08:16:08.333Z,-2.08
2022-12-01T08:18:36.526Z,-2.64
2022-12-01T08:21:06.278Z,-2.82
2022-12-01T08:23:33.481Z,-2.70
2022-12-01T08:26:05.245Z,-2.24
2022-12-01T08:28:32.798Z,-1.62
2022-12-01T08:31:00.138Z,-1.09
2022-12-01T08:33:27.418Z,-0.93
2022-12-01T08:35:55.985Z,-1.51
2022-12-01T08:38:25.902Z,-1.62
2022-12-01T08:40:56.492Z,-1.68
2022-12-01T08:43:49.616Z,-1.72
2022-12-01T08:46:14.323Z,-2.14
2022-12-01T08:48:41.636Z,-2.02
2022-12-01T08:51:11.332Z,-2.00
2022-12-01T08:53:45.135Z,-2.19
2022-12-01T08:56:18.365Z,-2.25
2022-12-01T08:58:45.799Z,-2.45
2022-12-01T09:01:15.046Z,-1.50
2022-12-01T09:03:42.593Z,-1.36
2022-12-01T09:06:14.970Z,-1.01
2022-12-01T09:08:42.588Z,-0.78
2022-12-01T09:11:15.169Z,-1.32
2022-12-01T09:13:42.762Z,-1.21
2022-12-01T09:16:15.047Z,-1.23
2022-12-01T09:18:45.832Z,-1.77
2022-12-01T09:21:16.255Z,-1.34
2022-12-01T09:23:44.952Z,-1.22
2022-12-01T09:26:13.741Z,-1.14
2022-12-01T09:28:41.086Z,-1.55
2022-12-01T09:31:10.004Z,-1.57
2022-12-01T09:33:37.536Z,-1.01
2022-12-01T09:36:05.938Z,-1.39
2022-12-01T09:38:34.310Z,-1.13
2022-12-01T09:41:06.975Z,-1.01
2022-12-01T09:43:40.785Z,-0.99
2022-12-01T09:46:09.692Z,-0.62
2022-12-01T09:48:43.042Z,-0.51
2022-12-01T09:51:14.182Z,-0.92
2022-12-01T09:53:41.430Z,-1.03
2022-12-01T09:56:22.648Z,-1.23
2022-12-01T09:58:53.670Z,-0.67
2022-12-01T10:01:26.979Z,-0.58
2022-12-01T10:03:57.287Z,0.25
2022-12-01T10:07:03.503Z,0.44
2022-12-01T10:09:38.899Z,0.36
2022-12-01T10:12:19.669Z,0.38
2022-12-01T10:14:47.943Z,0.59
2022-12-01T10:17:40.387Z,0.52
2022-12-01T10:20:23.081Z,0.58
2022-12-01T10:22:50.967Z,0.51
2022-12-01T10:25:25.148Z,0.75
2022-12-01T10:28:22.976Z,1.18
2022-12-01T10:30:51.757Z,1.30
2022-12-01T10:33:36.073Z,0.49
2022-12-01T10:36:03.559Z,-0.60
2022-12-01T10:38:33.241Z,-0.43
2022-12-01T10:41:01.446Z,-0.17
2022-12-01T10:43:33.660Z,0.07
2022-12-01T10:46:03.354Z,-0.24
2022-12-01T10:48:31.092Z,-0.51
2022-12-01T10:51:15.749Z,-0.69
2022-12-01T10:53:43.202Z,-0.23
2022-12-01T10:56:14.967Z,-0.36
2022-12-01T10:58:57.800Z,-0.10
2022-12-01T11:01:32.315Z,-0.07
2022-12-01T11:04:21.397Z,-0.67
2022-12-01T11:06:50.456Z,-0.64
2022-12-01T11:09:26.402Z,-0.76
2022-12-01T11:12:01.855Z,-1.10
2022-12-01T11:14:50.615Z,-0.89
2022-12-01T11:17:24.217Z,-0.88
2022-12-01T11:19:53.946Z,-0.60
2022-12-01T11:22:34.802Z,-0.43
2022-12-01T11:25:04.402Z,-0.59
2022-12-01T11:27:52.164Z,-0.61
2022-12-01T11:30:27.283Z,-1.01
2022-12-01T11:32:57.183Z,-1.22
2022-12-01T11:35:26.468Z,-1.05
2022-12-01T11:38:29.382Z,-1.27
2022-12-01T11:40:49.201Z,-1.52
2022-12-01T11:43:27.558Z,-1.57
2022-12-01T11:45:55.166Z,-1.95
2022-12-01T11:48:27.821Z,-2.20
2022-12-01T11:51:21.547Z,-2.33
2022-12-01T11:53:49.447Z,-2.29
2022-12-01T11:56:20.313Z,-2.25
2022-12-01T11:58:50.958Z,-1.93
2022-12-01T12:01:46.063Z,-1.08
2022-12-01T12:04:37.023Z,-0.76
2022-12-01T12:07:26.443Z,-0.81
2022-12-01T12:10:07.520Z,-0.91
2022-12-01T12:12:58.073Z,-1.07
2022-12-01T12:15:55.425Z,-1.26
2022-12-01T12:18:48.581Z,-1.24
2022-12-01T12:21:33.132Z,-1.38
2022-12-01T12:24:06.843Z,-1.62
2022-12-01T12:27:00.819Z,-1.58
2022-12-01T12:29:28.178Z,-1.62
2022-12-01T12:32:08.223Z,-1.53
2022-12-01T12:34:54.226Z,-1.51
2022-12-01T12:37:29.557Z,-1.63
2022-12-01T12:40:28.352Z,-1.95
2022-12-01T12:43:15.568Z,-2.07
2022-12-01T12:46:01.819Z,-2.06
2022-12-01T12:49:18.204Z,-1.96
2022-12-01T12:51:47.162Z,-1.95
2022-12-01T12:54:31.594Z,-1.94
2022-12-01T12:57:09.722Z,-1.79
2022-12-01T12:59:42.504Z,-1.00
2022-12-01T13:02:12.864Z,-0.63
2022-12-01T13:04:52.676Z,-0.69
2022-12-01T13:07:44.254Z,-0.93
2022-12-01T13:10:23.547Z,-1.30
2022-12-01T13:13:18.942Z,-1.51
2022-12-01T13:15:47.200Z,-1.69
2022-12-01T13:18:48.899Z,-1.87
2022-12-01T13:21:22.972Z,-2.05
2022-12-01T13:23:51.471Z,-2.29
2022-12-01T13:26:20.104Z,-2.54
2022-12-01T13:28:56.223Z,-2.62
2022-12-01T13:31:23.810Z,-2.68
2022-12-01T13:33:59.830Z,-2.75
2022-12-01T13:39:22.395Z,-1.58
2022-12-01T13:42:27.532Z,-1.70
2022-12-01T13:45:18.544Z,-1.75
2022-12-01T13:47:53.342Z,-1.95
2022-12-01T13:50:48.989Z,-2.12
2022-12-01T13:53:19.823Z,-2.40
2022-12-01T13:56:03.369Z,-2.60
2022-12-01T13:58:34.498Z,-2.98
2022-12-01T14:01:21.124Z,-3.06
2022-12-01T14:03:56.940Z,-3.27
2022-12-01T14:06:27.791Z,-3.35
2022-12-01T14:09:06.486Z,-2.84
2022-12-01T14:11:34.586Z,-2.10
2022-12-01T14:14:12.487Z,-2.25
2022-12-01T14:17:02.477Z,-2.43
2022-12-01T14:19:52.461Z,-2.57
2022-12-01T14:22:44.491Z,-2.94
2022-12-01T14:25:30.010Z,-3.09
2022-12-01T14:28:01.168Z,-3.31
2022-12-01T14:30:55.840Z,-3.47
2022-12-01T14:33:47.843Z,-3.63
2022-12-01T14:36:24.614Z,-3.70
2022-12-01T14:38:58.523Z,-3.03
2022-12-01T14:41:56.393Z,-2.41
2022-12-01T14:44:31.826Z,-2.51
2022-12-01T14:47:07.184Z,-2.69
2022-12-01T14:50:10.530Z,-3.08
2022-12-01T14:52:40.593Z,-3.32
2022-12-01T14:55:33.134Z,-3.54
2022-12-01T14:58:17.697Z,-3.74
2022-12-01T15:01:12.033Z,-3.88
2022-12-01T15:03:42.999Z,-4.12
2022-12-01T15:06:10.477Z,-4.00
2022-12-01T15:08:49.163Z,-3.36
2022-12-01T15:11:26.174Z,-2.92
2022-12-01T15:13:55.017Z,-3.01
2022-12-01T15:16:29.279Z,-3.11
2022-12-01T15:19:36.467Z,-3.40
2022-12-01T15:22:16.213Z,-3.68
2022-12-01T15:24:45.720Z,-3.86
2022-12-01T15:27:31.027Z,-4.06
2022-12-01T15:30:04.918Z,-4.27
2022-12-01T15:32:33.585Z,-4.35
2022-12-01T15:35:05.753Z,-3.81
2022-12-01T15:37:51.544Z,-3.23
2022-12-01T15:43:17.686Z,-3.43
2022-12-01T15:45:59.247Z,-3.68
2022-12-01T15:48:34.818Z,-3.92
2022-12-01T15:51:16.815Z,-4.19
2022-12-01T15:53:55.988Z,-4.37
2022-12-01T15:56:29.312Z,-4.55
2022-12-01T15:59:18.672Z,-4.67
2022-12-01T16:01:46.104Z,-4.17
2022-12-01T16:04:18.593Z,-3.65
2022-12-01T16:07:02.891Z,-3.57
2022-12-01T16:09:44.378Z,-3.79
2022-12-01T16:12:15.323Z,-4.09
2022-12-01T16:14:50.111Z,-4.30
2022-12-01T16:17:17.907Z,-4.48
2022-12-01T16:19:45.990Z,-4.64
2022-12-01T16:22:18.252Z,-4.35
2022-12-01T16:24:54.135Z,-3.65
2022-12-01T16:27:22.889Z,-3.55
2022-12-01T16:29:52.726Z,-3.77
2022-12-01T16:32:39.848Z,-3.93
2022-12-01T16:35:29.701Z,-4.18
2022-12-01T16:37:58.188Z,-4.45
2022-12-01T16:40:25.636Z,-4.65
2022-12-01T16:42:53.124Z,-4.84
2022-12-01T16:45:20.656Z,-4.73
2022-12-01T16:47:49.952Z,-3.99
2022-12-01T16:50:18.888Z,-3.61
2022-12-01T16:52:46.911Z,-3.70
2022-12-01T16:55:38.558Z,-3.86
2022-12-01T16:58:06.197Z,-4.07
2022-12-01T17:00:35.229Z,-4.29
2022-12-01T17:03:02.711Z,-4.45
2022-12-01T17:05:30.305Z,-4.58
2022-12-01T17:07:57.823Z,-4.71
2022-12-01T17:10:25.324Z,-4.79
2022-12-01T17:12:52.780Z,-4.25
2022-12-01T17:15:20.457Z,-3.39
2022-12-01T17:17:48.024Z,-3.14
2022-12-01T17:20:15.692Z,-3.27
2022-12-01T17:22:43.231Z,-3.52
2022-12-01T17:25:10.787Z,-3.84
2022-12-01T17:27:38.657Z,-4.09
2022-12-01T17:30:07.285Z,-4.34
2022-12-01T17:32:34.714Z,-4.56
2022-12-01T17:35:02.243Z,-4.76
2022-12-01T17:37:29.699Z,-4.93
2022-12-01T17:39:57.236Z,-4.42
2022-12-01T17:42:24.921Z,-3.78
2022-12-01T17:44:52.482Z,-3.65
2022-12-01T17:47:20.140Z,-3.81
2022-12-01T17:49:50.229Z,-4.06
2022-12-01T17:52:17.752Z,-4.34
2022-12-01T17:54:46.095Z,-4.56
2022-12-01T17:57:13.597Z,-4.77
2022-12-01T17:59:41.323Z,-4.96
2022-12-01T18:02:12.178Z,-5.10
2022-12-01T18:04:39.826Z,-5.23
2022-12-01T18:07:07.377Z,-4.67
2022-12-01T18:09:34.834Z,-3.97
2022-12-01T18:12:02.388Z,-3.78
2022-12-01T18:14:30.970Z,-4.01
2022-12-01T18:16:58.630Z,-4.30
2022-12-01T18:19:27.008Z,-4.69
2022-12-01T18:21:54.472Z,-4.83
2022-12-01T18:24:22.024Z,-5.18
2022-12-01T18:26:49.582Z,-5.12
2022-12-01T18:29:26.381Z,-4.36
2022-12-01T18:31:55.428Z,-4.12
2022-12-01T18:34:23.011Z,-4.13
2022-12-01T18:36:50.568Z,-4.40
2022-12-01T18:39:18.130Z,-4.73
2022-12-01T18:41:45.588Z,-4.96
2022-12-01T18:44:13.074Z,-5.26
2022-12-01T18:46:40.542Z,-4.94
2022-12-01T18:49:09.498Z,-4.39
2022-12-01T18:51:37.717Z,-4.56
2022-12-01T18:54:06.311Z,-4.48
2022-12-01T18:56:34.461Z,-4.67
2022-12-01T18:59:03.913Z,-4.88
2022-12-01T19:01:33.458Z,-5.05
2022-12-01T19:04:01.194Z,-5.15
2022-12-01T19:06:29.365Z,-5.32
2022-12-01T19:08:59.634Z,-4.78
2022-12-01T19:11:27.355Z,-4.27
2022-12-01T19:13:56.330Z,-4.09
2022-12-01T19:16:24.542Z,-4.15
2022-12-01T19:18:53.511Z,-4.73
2022-12-01T19:21:21.582Z,-4.86
2022-12-01T19:23:50.162Z,-4.91
2022-12-01T19:26:19.470Z,-5.16
2022-12-01T19:28:47.125Z,-5.26
2022-12-01T19:31:16.641Z,-5.44
2022-12-01T19:33:44.803Z,-4.89
2022-12-01T19:36:17.918Z,-4.28
2022-12-01T19:38:45.552Z,-4.12
2022-12-01T19:41:14.443Z,-4.29
2022-12-01T19:43:42.820Z,-4.73
2022-12-01T19:46:12.856Z,-4.79
2022-12-01T19:48:40.403Z,-4.93
2022-12-01T19:51:07.962Z,-5.26
2022-12-01T19:53:35.520Z,-5.31
2022-12-01T19:56:03.741Z,-4.81
2022-12-01T19:58:35.145Z,-4.10
2022-12-01T20:01:07.067Z,-4.13
2022-12-01T20:03:34.760Z,-4.23
2022-12-01T20:06:07.739Z,-4.55
2022-12-01T20:08:36.101Z,-4.96
2022-12-01T20:11:04.714Z,-4.99
2022-12-01T20:13:33.337Z,-5.15
2022-12-01T20:16:11.290Z,-5.38
2022-12-01T20:18:39.466Z,-5.59
2022-12-01T20:21:17.747Z,-5.64
2022-12-01T20:23:47.629Z,-5.10
2022-12-01T20:26:15.970Z,-4.27
2022-12-01T20:28:45.500Z,-4.14
2022-12-01T20:31:24.120Z,-4.22
2022-12-01T20:33:52.675Z,-4.52
2022-12-01T20:36:20.342Z,-4.72
2022-12-01T20:38:48.098Z,-5.01
2022-12-01T20:41:15.970Z,-5.21
2022-12-01T20:43:43.420Z,-5.39
2022-12-01T20:46:11.690Z,-5.59
2022-12-01T20:48:39.268Z,-5.21
2022-12-01T20:51:07.224Z,-4.41
2022-12-01T20:53:35.553Z,-4.23
2022-12-01T20:56:06.469Z,-4.34
2022-12-01T20:58:37.541Z,-4.64
2022-12-01T21:01:14.397Z,-5.07
2022-12-01T21:03:42.898Z,-5.40
2022-12-01T21:06:11.432Z,-5.64
2022-12-01T21:08:39.901Z,-5.71
2022-12-01T21:11:09.612Z,-5.86
2022-12-01T21:13:39.935Z,-5.35
2022-12-01T21:16:17.386Z,-4.73
2022-12-01T21:18:56.094Z,-4.73
2022-12-01T21:21:25.762Z,-4.88
2022-12-01T21:24:08.585Z,-5.04
2022-12-01T21:26:37.365Z,-5.16
2022-12-01T21:29:13.419Z,-5.35
2022-12-01T21:31:40.871Z,-5.58
2022-12-01T21:34:18.260Z,-5.76
2022-12-01T21:36:48.386Z,-5.97
2022-12-01T21:39:18.148Z,-6.09
2022-12-01T21:41:45.649Z,-5.54
2022-12-01T21:44:18.158Z,-4.85
2022-12-01T21:46:46.398Z,-4.57
2022-12-01T21:49:22.557Z,-5.00
2022-12-01T21:51:51.141Z,-5.44
2022-12-01T21:54:20.749Z,-5.59
2022-12-01T21:56:52.924Z,-5.63
2022-12-01T21:59:22.326Z,-5.82
2022-12-01T22:01:53.654Z,-5.55
2022-12-01T22:04:26.657Z,-4.69
2022-12-01T22:06:55.340Z,-4.56
2022-12-01T22:09:34.823Z,-4.73
2022-12-01T22:12:41.044Z,-4.90
2022-12-01T22:15:14.232Z,-5.06
2022-12-01T22:17:45.847Z,-5.25
2022-12-01T22:20:22.045Z,-5.49
2022-12-01T22:22:49.509Z,-5.59
2022-12-01T22:25:28.464Z,-5.03
2022-12-01T22:27:58.655Z,-4.32
2022-12-01T22:30:26.208Z,-4.13
2022-12-01T22:32:57.407Z,-4.16
2022-12-01T22:35:27.524Z,-4.34
2022-12-01T22:37:55.133Z,-4.76
2022-12-01T22:40:32.010Z,-5.00
2022-12-01T22:43:29.591Z,-5.21
2022-12-01T22:46:00.106Z,-5.22
2022-12-01T22:48:27.679Z,-4.66
2022-12-01T22:50:55.431Z,-4.18
2022-12-01T22:53:29.855Z,-4.03
2022-12-01T22:55:58.270Z,-4.61
2022-12-01T22:58:32.909Z,-4.75
2022-12-01T23:01:28.695Z,-5.04
2022-12-01T23:04:20.087Z,-5.04
2022-12-01T23:07:08.328Z,-5.30
2022-12-01T23:09:42.669Z,-5.43
2022-12-01T23:12:10.206Z,-4.86
2022-12-01T23:14:46.060Z,-4.26
2022-12-01T23:17:25.598Z,-3.93
2022-12-01T23:19:55.955Z,-4.28
2022-12-01T23:22:23.378Z,-4.47
2022-12-01T23:24:51.003Z,-4.45
2022-12-01T23:27:18.702Z,-4.63
2022-12-01T23:29:48.201Z,-5.17
2022-12-01T23:32:15.662Z,-5.18
2022-12-01T23:34:43.119Z,-4.33
2022-12-01T23:37:23.281Z,-3.94
2022-12-01T23:39:50.728Z,-4.13
2022-12-01T23:42:18.186Z,-4.37
2022-12-01T23:44:46.260Z,-4.44
2022-12-01T23:47:20.161Z,-4.53
2022-12-01T23:49:47.933Z,-4.74
2022-12-01T23:52:20.059Z,-4.85
2022-12-01T23:54:47.829Z,-5.07
2022-12-01T23:57:24.401Z,-4.50
2022-12-01T23:59:55.425Z,-4.04
